sensor_id;sensor_type;location;lat;lon;timestamp;pressure;altitude;pressure_sealevel;temperature;humidity
49943;BME280;36011;53.362;58.948;2023-08-21T00:01:30;96434.66;;;15.94;71.64
49943;BME280;36011;53.362;58.948;2023-08-21T00:04:31;96436.50;;;15.94;71.89
49943;BME280;36011;53.362;58.948;2023-08-21T00:07:39;96436.78;;;15.91;71.93
49943;BME280;36011;53.362;58.948;2023-08-21T00:10:40;96427.41;;;15.87;72.04
49943;BME280;36011;53.362;58.948;2023-08-21T00:13:44;96434.66;;;15.85;72.20
49943;BME280;36011;53.362;58.948;2023-08-21T00:16:52;96430.50;;;15.82;72.49
49943;BME280;36011;53.362;58.948;2023-08-21T00:19:53;96438.47;;;15.73;72.54
49943;BME280;36011;53.362;58.948;2023-08-21T00:22:55;96427.56;;;15.76;72.61
49943;BME280;36011;53.362;58.948;2023-08-21T00:25:57;96425.34;;;15.81;72.21
49943;BME280;36011;53.362;58.948;2023-08-21T00:29:01;96415.44;;;15.83;72.44
49943;BME280;36011;53.362;58.948;2023-08-21T00:32:03;96421.84;;;15.80;72.52
49943;BME280;36011;53.362;58.948;2023-08-21T00:35:04;96421.97;;;15.79;72.68
49943;BME280;36011;53.362;58.948;2023-08-21T00:38:10;96413.31;;;15.77;72.79
49943;BME280;36011;53.362;58.948;2023-08-21T00:41:12;96417.22;;;15.82;72.58
49943;BME280;36011;53.362;58.948;2023-08-21T00:44:18;96420.03;;;15.81;72.50
49943;BME280;36011;53.362;58.948;2023-08-21T00:47:20;96414.19;;;15.77;72.59
49943;BME280;36011;53.362;58.948;2023-08-21T00:50:24;96414.47;;;15.74;72.65
49943;BME280;36011;53.362;58.948;2023-08-21T00:53:27;96420.06;;;15.71;72.69
49943;BME280;36011;53.362;58.948;2023-08-21T00:56:28;96419.75;;;15.64;72.88
49943;BME280;36011;53.362;58.948;2023-08-21T00:59:30;96423.38;;;15.63;72.96
49943;BME280;36011;53.362;58.948;2023-08-21T01:02:33;96420.31;;;15.58;73.06
49943;BME280;36011;53.362;58.948;2023-08-21T01:05:39;96412.94;;;15.52;73.39
49943;BME280;36011;53.362;58.948;2023-08-21T01:08:53;96416.97;;;15.56;73.59
49943;BME280;36011;53.362;58.948;2023-08-21T01:15:19;96409.59;;;15.50;73.83
49943;BME280;36011;53.362;58.948;2023-08-21T01:18:26;96401.63;;;15.60;74.00
49943;BME280;36011;53.362;58.948;2023-08-21T01:21:31;96398.53;;;15.64;73.87
49943;BME280;36011;53.362;58.948;2023-08-21T01:24:32;96400.34;;;15.64;74.07
49943;BME280;36011;53.362;58.948;2023-08-21T01:27:35;96402.63;;;15.68;74.35
49943;BME280;36011;53.362;58.948;2023-08-21T01:30:39;96397.69;;;15.74;73.87
49943;BME280;36011;53.362;58.948;2023-08-21T01:34:04;96393.50;;;15.81;74.19
49943;BME280;36011;53.362;58.948;2023-08-21T01:37:08;96392.38;;;15.83;73.91
49943;BME280;36011;53.362;58.948;2023-08-21T01:40:10;96397.94;;;15.90;73.78
49943;BME280;36011;53.362;58.948;2023-08-21T01:43:16;96385.22;;;15.93;73.35
49943;BME280;36011;53.362;58.948;2023-08-21T01:46:20;96377.13;;;15.95;73.19
49943;BME280;36011;53.362;58.948;2023-08-21T01:49:22;96368.34;;;15.94;73.00
49943;BME280;36011;53.362;58.948;2023-08-21T01:52:23;96370.00;;;15.96;73.01
49943;BME280;36011;53.362;58.948;2023-08-21T01:55:25;96369.56;;;16.00;73.08
49943;BME280;36011;53.362;58.948;2023-08-21T01:58:27;96383.91;;;16.07;72.63
49943;BME280;36011;53.362;58.948;2023-08-21T02:01:33;96383.31;;;16.13;72.33
49943;BME280;36011;53.362;58.948;2023-08-21T02:04:35;96404.31;;;16.16;72.20
49943;BME280;36011;53.362;58.948;2023-08-21T02:07:36;96392.44;;;16.11;71.99
49943;BME280;36011;53.362;58.948;2023-08-21T02:10:38;96389.78;;;16.11;72.23
49943;BME280;36011;53.362;58.948;2023-08-21T02:13:44;96393.38;;;16.20;72.12
49943;BME280;36011;53.362;58.948;2023-08-21T02:16:48;96377.94;;;16.33;72.00
49943;BME280;36011;53.362;58.948;2023-08-21T02:19:53;96376.47;;;16.48;71.67
49943;BME280;36011;53.362;58.948;2023-08-21T02:22:59;96390.31;;;16.70;71.33
49943;BME280;36011;53.362;58.948;2023-08-21T02:26:01;96384.16;;;16.79;71.11
49943;BME280;36011;53.362;58.948;2023-08-21T02:29:02;96383.16;;;16.80;71.04
49943;BME280;36011;53.362;58.948;2023-08-21T02:32:09;96389.69;;;16.86;71.26
49943;BME280;36011;53.362;58.948;2023-08-21T02:35:13;96378.63;;;16.90;71.23
49943;BME280;36011;53.362;58.948;2023-08-21T02:38:14;96375.06;;;16.99;71.25
49943;BME280;36011;53.362;58.948;2023-08-21T02:41:21;96368.06;;;17.16;71.03
49943;BME280;36011;53.362;58.948;2023-08-21T02:44:27;96367.22;;;17.34;70.96
49943;BME280;36011;53.362;58.948;2023-08-21T02:47:29;96362.78;;;17.42;70.45
49943;BME280;36011;53.362;58.948;2023-08-21T02:50:32;96365.91;;;17.56;70.04
49943;BME280;36011;53.362;58.948;2023-08-21T02:53:39;96364.66;;;17.68;69.75
49943;BME280;36011;53.362;58.948;2023-08-21T02:56:41;96363.03;;;17.75;69.60
49943;BME280;36011;53.362;58.948;2023-08-21T02:59:42;96361.94;;;17.86;69.33
49943;BME280;36011;53.362;58.948;2023-08-21T03:02:48;96360.16;;;17.94;68.93
49943;BME280;36011;53.362;58.948;2023-08-21T03:05:54;96363.75;;;18.03;68.72
49943;BME280;36011;53.362;58.948;2023-08-21T03:09:00;96360.13;;;18.12;68.55
49943;BME280;36011;53.362;58.948;2023-08-21T03:12:04;96354.69;;;18.30;68.54
49943;BME280;36011;53.362;58.948;2023-08-21T03:15:10;96359.28;;;18.46;68.14
49943;BME280;36011;53.362;58.948;2023-08-21T03:18:11;96365.09;;;18.50;67.57
49943;BME280;36011;53.362;58.948;2023-08-21T03:21:15;96359.44;;;18.53;67.41
49943;BME280;36011;53.362;58.948;2023-08-21T03:24:21;96350.66;;;18.60;66.98
49943;BME280;36011;53.362;58.948;2023-08-21T03:27:24;96360.53;;;18.76;66.55
49943;BME280;36011;53.362;58.948;2023-08-21T03:30:25;96358.59;;;18.95;65.76
49943;BME280;36011;53.362;58.948;2023-08-21T03:33:29;96354.59;;;19.15;65.33
49943;BME280;36011;53.362;58.948;2023-08-21T03:36:30;96347.94;;;19.36;64.80
49943;BME280;36011;53.362;58.948;2023-08-21T03:39:33;96329.25;;;19.52;63.99
49943;BME280;36011;53.362;58.948;2023-08-21T03:42:36;96332.09;;;19.67;63.66
49943;BME280;36011;53.362;58.948;2023-08-21T03:45:40;96332.75;;;19.77;63.20
49943;BME280;36011;53.362;58.948;2023-08-21T03:48:46;96338.91;;;19.86;62.48
49943;BME280;36011;53.362;58.948;2023-08-21T03:51:49;96343.22;;;19.95;61.85
49943;BME280;36011;53.362;58.948;2023-08-21T03:54:57;96342.16;;;20.12;61.49
49943;BME280;36011;53.362;58.948;2023-08-21T03:57:58;96345.09;;;20.34;60.76
49943;BME280;36011;53.362;58.948;2023-08-21T04:01:05;96348.38;;;20.52;60.08
49943;BME280;36011;53.362;58.948;2023-08-21T04:04:09;96338.81;;;20.66;59.62
49943;BME280;36011;53.362;58.948;2023-08-21T04:07:11;96345.28;;;20.72;58.72
49943;BME280;36011;53.362;58.948;2023-08-21T04:10:16;96338.94;;;20.73;58.10
49943;BME280;36011;53.362;58.948;2023-08-21T04:13:22;96331.91;;;20.72;57.12
49943;BME280;36011;53.362;58.948;2023-08-21T04:16:27;96345.25;;;20.80;56.43
49943;BME280;36011;53.362;58.948;2023-08-21T04:19:29;96345.84;;;20.90;55.05
49943;BME280;36011;53.362;58.948;2023-08-21T04:22:33;96343.59;;;21.02;53.51
49943;BME280;36011;53.362;58.948;2023-08-21T04:25:38;96354.56;;;21.15;52.71
49943;BME280;36011;53.362;58.948;2023-08-21T04:28:42;96333.31;;;21.14;51.40
49943;BME280;36011;53.362;58.948;2023-08-21T04:31:44;96354.22;;;21.41;50.59
49943;BME280;36011;53.362;58.948;2023-08-21T04:34:45;96340.50;;;21.36;48.76
49943;BME280;36011;53.362;58.948;2023-08-21T04:37:47;96345.84;;;21.36;48.11
49943;BME280;36011;53.362;58.948;2023-08-21T04:40:51;96350.66;;;21.49;47.93
49943;BME280;36011;53.362;58.948;2023-08-21T04:43:55;96354.09;;;21.58;47.22
49943;BME280;36011;53.362;58.948;2023-08-21T04:46:57;96348.38;;;21.61;46.74
49943;BME280;36011;53.362;58.948;2023-08-21T04:49:58;96351.91;;;21.76;46.72
49943;BME280;36011;53.362;58.948;2023-08-21T04:52:59;96353.22;;;21.80;45.73
49943;BME280;36011;53.362;58.948;2023-08-21T04:56:01;96344.88;;;21.75;45.85
49943;BME280;36011;53.362;58.948;2023-08-21T04:59:06;96344.72;;;21.91;44.79
49943;BME280;36011;53.362;58.948;2023-08-21T05:02:10;96349.84;;;22.31;43.70
49943;BME280;36011;53.362;58.948;2023-08-21T05:05:14;96347.44;;;23.94;40.22
49943;BME280;36011;53.362;58.948;2023-08-21T05:08:19;96348.59;;;27.14;34.31
49943;BME280;36011;53.362;58.948;2023-08-21T05:11:24;96360.25;;;31.77;27.96
49943;BME280;36011;53.362;58.948;2023-08-21T05:14:29;96355.06;;;35.08;22.97
49943;BME280;36011;53.362;58.948;2023-08-21T05:17:31;96361.06;;;37.15;17.01
49943;BME280;36011;53.362;58.948;2023-08-21T05:20:36;96350.47;;;38.21;13.99
49943;BME280;36011;53.362;58.948;2023-08-21T05:23:39;96344.88;;;39.33;12.61
49943;BME280;36011;53.362;58.948;2023-08-21T05:26:43;96356.84;;;39.80;11.90
49943;BME280;36011;53.362;58.948;2023-08-21T05:29:48;96362.78;;;40.52;10.65
49943;BME280;36011;53.362;58.948;2023-08-21T05:32:55;96352.88;;;42.07;9.88
49943;BME280;36011;53.362;58.948;2023-08-21T05:35:59;96351.38;;;43.34;9.61
49943;BME280;36011;53.362;58.948;2023-08-21T05:39:07;96349.91;;;43.45;9.01
49943;BME280;36011;53.362;58.948;2023-08-21T05:42:12;96343.16;;;43.95;8.58
49943;BME280;36011;53.362;58.948;2023-08-21T05:45:16;96342.31;;;44.03;8.75
49943;BME280;36011;53.362;58.948;2023-08-21T05:48:19;96340.66;;;43.85;8.05
49943;BME280;36011;53.362;58.948;2023-08-21T05:51:24;96345.91;;;43.60;8.76
49943;BME280;36011;53.362;58.948;2023-08-21T05:54:28;96341.66;;;42.57;8.85
49943;BME280;36011;53.362;58.948;2023-08-21T05:57:35;96338.69;;;41.27;9.69
49943;BME280;36011;53.362;58.948;2023-08-21T06:00:40;96333.34;;;40.34;10.29
49943;BME280;36011;53.362;58.948;2023-08-21T06:03:45;96329.69;;;38.10;11.33
49943;BME280;36011;53.362;58.948;2023-08-21T06:06:49;96313.88;;;37.13;12.09
49943;BME280;36011;53.362;58.948;2023-08-21T06:09:55;96317.94;;;38.04;11.67
49943;BME280;36011;53.362;58.948;2023-08-21T06:13:01;96322.88;;;39.27;10.84
49943;BME280;36011;53.362;58.948;2023-08-21T06:16:07;96328.09;;;40.79;10.23
49943;BME280;36011;53.362;58.948;2023-08-21T06:19:11;96331.06;;;42.81;9.30
49943;BME280;36011;53.362;58.948;2023-08-21T06:22:14;96345.53;;;44.40;8.16
49943;BME280;36011;53.362;58.948;2023-08-21T06:25:18;96343.53;;;45.56;7.56
49943;BME280;36011;53.362;58.948;2023-08-21T06:28:22;96337.66;;;46.45;7.37
49943;BME280;36011;53.362;58.948;2023-08-21T06:31:26;96335.56;;;46.08;7.43
49943;BME280;36011;53.362;58.948;2023-08-21T06:34:33;96349.44;;;45.75;7.75
49943;BME280;36011;53.362;58.948;2023-08-21T06:37:40;96342.38;;;46.32;7.11
49943;BME280;36011;53.362;58.948;2023-08-21T06:40:45;96336.56;;;46.95;6.74
49943;BME280;36011;53.362;58.948;2023-08-21T06:43:50;96327.25;;;47.40;6.84
49943;BME280;36011;53.362;58.948;2023-08-21T06:46:53;96333.28;;;48.67;6.68
49943;BME280;36011;53.362;58.948;2023-08-21T06:49:59;96315.38;;;49.19;6.48
49943;BME280;36011;53.362;58.948;2023-08-21T06:53:02;96319.44;;;48.42;6.50
49943;BME280;36011;53.362;58.948;2023-08-21T06:56:08;96321.06;;;48.75;6.71
49943;BME280;36011;53.362;58.948;2023-08-21T06:59:13;96314.31;;;48.44;7.28
49943;BME280;36011;53.362;58.948;2023-08-21T07:02:18;96317.06;;;48.88;6.75
49943;BME280;36011;53.362;58.948;2023-08-21T07:05:22;96308.84;;;49.85;6.15
49943;BME280;36011;53.362;58.948;2023-08-21T07:08:27;96314.78;;;48.94;6.27
49943;BME280;36011;53.362;58.948;2023-08-21T07:11:31;96316.84;;;47.00;7.44
49943;BME280;36011;53.362;58.948;2023-08-21T07:14:37;96305.00;;;46.78;7.67
49943;BME280;36011;53.362;58.948;2023-08-21T07:17:41;96312.34;;;48.61;7.09
49943;BME280;36011;53.362;58.948;2023-08-21T07:20:51;96313.41;;;49.74;6.37
49943;BME280;36011;53.362;58.948;2023-08-21T07:23:55;96303.66;;;50.46;5.88
49943;BME280;36011;53.362;58.948;2023-08-21T07:27:01;96305.31;;;50.08;6.25
49943;BME280;36011;53.362;58.948;2023-08-21T07:30:03;96300.81;;;49.10;6.72
49943;BME280;36011;53.362;58.948;2023-08-21T07:33:08;96289.66;;;47.34;7.25
49943;BME280;36011;53.362;58.948;2023-08-21T07:36:12;96291.56;;;46.23;8.49
49943;BME280;36011;53.362;58.948;2023-08-21T07:39:20;96286.69;;;45.23;8.71
49943;BME280;36011;53.362;58.948;2023-08-21T07:42:24;96283.31;;;44.88;8.80
49943;BME280;36011;53.362;58.948;2023-08-21T07:45:30;96282.81;;;44.56;9.24
49943;BME280;36011;53.362;58.948;2023-08-21T07:48:35;96284.16;;;44.33;9.31
49943;BME280;36011;53.362;58.948;2023-08-21T07:51:38;96277.94;;;44.53;9.48
49943;BME280;36011;53.362;58.948;2023-08-21T07:54:43;96284.81;;;45.07;8.99
49943;BME280;36011;53.362;58.948;2023-08-21T07:57:47;96286.63;;;44.43;9.15
49943;BME280;36011;53.362;58.948;2023-08-21T08:00:52;96282.69;;;44.44;9.34
49943;BME280;36011;53.362;58.948;2023-08-21T08:03:56;96292.03;;;44.78;9.01
49943;BME280;36011;53.362;58.948;2023-08-21T08:07:01;96283.09;;;44.64;9.16
49943;BME280;36011;53.362;58.948;2023-08-21T08:10:05;96302.38;;;45.70;8.91
49943;BME280;36011;53.362;58.948;2023-08-21T08:13:09;96312.66;;;46.82;8.10
49943;BME280;36011;53.362;58.948;2023-08-21T08:16:14;96298.25;;;46.79;7.67
49943;BME280;36011;53.362;58.948;2023-08-21T08:19:20;96295.75;;;46.74;8.04
49943;BME280;36011;53.362;58.948;2023-08-21T08:22:25;96290.88;;;46.71;8.22
49943;BME280;36011;53.362;58.948;2023-08-21T08:25:29;96281.69;;;47.20;7.89
49943;BME280;36011;53.362;58.948;2023-08-21T08:28:33;96297.09;;;48.26;7.25
49943;BME280;36011;53.362;58.948;2023-08-21T08:31:36;96297.31;;;48.65;7.18
49943;BME280;36011;53.362;58.948;2023-08-21T08:34:41;96290.19;;;48.36;7.82
49943;BME280;36011;53.362;58.948;2023-08-21T08:37:46;96293.09;;;48.87;7.59
49943;BME280;36011;53.362;58.948;2023-08-21T08:40:52;96296.50;;;48.65;7.39
49943;BME280;36011;53.362;58.948;2023-08-21T08:43:58;96292.81;;;48.45;7.38
49943;BME280;36011;53.362;58.948;2023-08-21T08:47:04;96295.41;;;48.85;7.69
49943;BME280;36011;53.362;58.948;2023-08-21T08:50:08;96289.63;;;48.78;7.17
49943;BME280;36011;53.362;58.948;2023-08-21T08:53:14;96272.28;;;46.63;8.36
49943;BME280;36011;53.362;58.948;2023-08-21T08:56:18;96278.19;;;44.22;9.64
49943;BME280;36011;53.362;58.948;2023-08-21T08:59:22;96265.97;;;42.93;10.16
49943;BME280;36011;53.362;58.948;2023-08-21T09:02:27;96259.00;;;42.47;10.80
49943;BME280;36011;53.362;58.948;2023-08-21T09:05:32;96246.47;;;40.50;11.85
49943;BME280;36011;53.362;58.948;2023-08-21T09:08:36;96235.16;;;38.83;13.19
49943;BME280;36011;53.362;58.948;2023-08-21T09:11:46;96245.03;;;38.65;13.61
49943;BME280;36011;53.362;58.948;2023-08-21T09:14:51;96239.34;;;39.89;13.12
49943;BME280;36011;53.362;58.948;2023-08-21T09:17:56;96240.66;;;42.28;11.69
49943;BME280;36011;53.362;58.948;2023-08-21T09:21:02;96242.63;;;44.15;10.63
49943;BME280;36011;53.362;58.948;2023-08-21T09:24:06;96252.47;;;45.74;9.63
49943;BME280;36011;53.362;58.948;2023-08-21T09:27:17;96246.03;;;45.61;9.30
49943;BME280;36011;53.362;58.948;2023-08-21T09:30:22;96246.88;;;45.95;8.99
49943;BME280;36011;53.362;58.948;2023-08-21T09:33:27;96244.00;;;46.73;8.86
49943;BME280;36011;53.362;58.948;2023-08-21T09:36:32;96253.38;;;46.44;8.62
49943;BME280;36011;53.362;58.948;2023-08-21T09:39:39;96238.53;;;45.40;9.20
49943;BME280;36011;53.362;58.948;2023-08-21T09:42:45;96226.41;;;45.24;9.55
49943;BME280;36011;53.362;58.948;2023-08-21T09:45:55;96223.91;;;45.31;9.33
49943;BME280;36011;53.362;58.948;2023-08-21T09:49:04;96229.84;;;45.63;9.15
49943;BME280;36011;53.362;58.948;2023-08-21T09:52:07;96231.75;;;46.17;8.79
49943;BME280;36011;53.362;58.948;2023-08-21T09:55:32;96226.28;;;46.20;9.09
49943;BME280;36011;53.362;58.948;2023-08-21T09:58:36;96224.09;;;45.80;9.13
49943;BME280;36011;53.362;58.948;2023-08-21T10:01:44;96232.50;;;45.59;9.11
49943;BME280;36011;53.362;58.948;2023-08-21T10:04:52;96221.00;;;44.00;9.55
49943;BME280;36011;53.362;58.948;2023-08-21T10:07:55;96206.63;;;40.84;11.95
49943;BME280;36011;53.362;58.948;2023-08-21T10:11:02;96218.09;;;40.50;12.33
49943;BME280;36011;53.362;58.948;2023-08-21T10:14:07;96213.66;;;40.07;12.71
49943;BME280;36011;53.362;58.948;2023-08-21T10:17:12;96204.03;;;39.77;12.95
49943;BME280;36011;53.362;58.948;2023-08-21T10:20:24;96225.19;;;39.63;13.25
49943;BME280;36011;53.362;58.948;2023-08-21T10:23:30;96213.41;;;39.24;13.31
49943;BME280;36011;53.362;58.948;2023-08-21T10:26:40;96216.97;;;38.20;13.79
49943;BME280;36011;53.362;58.948;2023-08-21T10:29:56;96216.94;;;36.83;15.14
49943;BME280;36011;53.362;58.948;2023-08-21T10:32:58;96203.63;;;35.65;15.98
49943;BME280;36011;53.362;58.948;2023-08-21T10:50:03;96208.19;;;34.88;16.94
49943;BME280;36011;53.362;58.948;2023-08-21T10:53:05;96205.16;;;34.84;17.22
49943;BME280;36011;53.362;58.948;2023-08-21T10:56:12;96207.59;;;34.08;17.89
49943;BME280;36011;53.362;58.948;2023-08-21T10:59:18;96197.06;;;33.47;18.28
49943;BME280;36011;53.362;58.948;2023-08-21T11:02:23;96199.59;;;33.21;18.56
49943;BME280;36011;53.362;58.948;2023-08-21T11:05:27;96190.53;;;32.61;19.54
49943;BME280;36011;53.362;58.948;2023-08-21T11:08:34;96192.50;;;31.83;20.33
49943;BME280;36011;53.362;58.948;2023-08-21T11:11:41;96195.50;;;31.14;20.76
49943;BME280;36011;53.362;58.948;2023-08-21T11:14:48;96194.25;;;30.76;21.30
49943;BME280;36011;53.362;58.948;2023-08-21T11:17:57;96196.28;;;30.52;21.51
49943;BME280;36011;53.362;58.948;2023-08-21T11:21:09;96202.34;;;30.19;21.93
49943;BME280;36011;53.362;58.948;2023-08-21T11:24:11;96196.28;;;29.88;22.40
49943;BME280;36011;53.362;58.948;2023-08-21T11:27:15;96195.94;;;29.61;22.72
49943;BME280;36011;53.362;58.948;2023-08-21T11:30:22;96198.53;;;29.44;23.16
49943;BME280;36011;53.362;58.948;2023-08-21T11:33:26;96194.81;;;29.15;23.34
49943;BME280;36011;53.362;58.948;2023-08-21T11:36:30;96194.06;;;28.96;23.71
49943;BME280;36011;53.362;58.948;2023-08-21T11:39:45;96204.09;;;28.65;24.25
49943;BME280;36011;53.362;58.948;2023-08-21T11:42:59;96187.16;;;28.40;24.54
49943;BME280;36011;53.362;58.948;2023-08-21T11:46:04;96198.59;;;28.24;25.04
49943;BME280;36011;53.362;58.948;2023-08-21T11:49:10;96188.47;;;28.01;25.17
49943;BME280;36011;53.362;58.948;2023-08-21T11:52:20;96195.59;;;27.95;25.58
49943;BME280;36011;53.362;58.948;2023-08-21T11:55:24;96199.44;;;28.06;25.50
49943;BME280;36011;53.362;58.948;2023-08-21T11:58:30;96190.47;;;28.24;25.30
49943;BME280;36011;53.362;58.948;2023-08-21T12:01:35;96179.34;;;28.32;24.85
49943;BME280;36011;53.362;58.948;2023-08-21T12:04:42;96175.22;;;28.29;25.12
49943;BME280;36011;53.362;58.948;2023-08-21T12:07:46;96163.41;;;28.24;24.93
49943;BME280;36011;53.362;58.948;2023-08-21T12:10:52;96171.13;;;28.08;25.27
49943;BME280;36011;53.362;58.948;2023-08-21T12:13:56;96175.47;;;27.91;25.58
49943;BME280;36011;53.362;58.948;2023-08-21T12:17:00;96173.72;;;27.78;25.37
49943;BME280;36011;53.362;58.948;2023-08-21T12:20:03;96173.06;;;27.83;25.42
49943;BME280;36011;53.362;58.948;2023-08-21T12:23:14;96169.28;;;28.02;25.50
49943;BME280;36011;53.362;58.948;2023-08-21T12:26:19;96166.91;;;28.73;24.82
49943;BME280;36011;53.362;58.948;2023-08-21T12:29:30;96162.56;;;29.61;23.79
49943;BME280;36011;53.362;58.948;2023-08-21T12:32:37;96155.16;;;30.20;23.14
49943;BME280;36011;53.362;58.948;2023-08-21T12:35:41;96154.00;;;31.02;22.54
49943;BME280;36011;53.362;58.948;2023-08-21T12:38:44;96157.03;;;31.56;21.78
49943;BME280;36011;53.362;58.948;2023-08-21T12:41:48;96155.38;;;31.55;21.74
49943;BME280;36011;53.362;58.948;2023-08-21T12:44:54;96153.41;;;31.33;21.59
49943;BME280;36011;53.362;58.948;2023-08-21T12:48:01;96154.72;;;30.80;22.55
49943;BME280;36011;53.362;58.948;2023-08-21T12:51:07;96147.25;;;30.59;22.62
49943;BME280;36011;53.362;58.948;2023-08-21T12:54:13;96151.28;;;30.16;23.01
49943;BME280;36011;53.362;58.948;2023-08-21T12:57:14;96145.47;;;29.95;23.71
49943;BME280;36011;53.362;58.948;2023-08-21T13:00:22;96154.97;;;30.10;23.34
49943;BME280;36011;53.362;58.948;2023-08-21T13:03:32;96144.44;;;30.25;23.38
49943;BME280;36011;53.362;58.948;2023-08-21T13:06:38;96152.28;;;30.67;22.90
49943;BME280;36011;53.362;58.948;2023-08-21T13:09:45;96146.94;;;30.72;22.65
49943;BME280;36011;53.362;58.948;2023-08-21T13:12:52;96137.47;;;30.58;23.16
49943;BME280;36011;53.362;58.948;2023-08-21T13:15:53;96138.09;;;30.08;23.74
49943;BME280;36011;53.362;58.948;2023-08-21T13:18:56;96139.94;;;29.20;24.70
49943;BME280;36011;53.362;58.948;2023-08-21T13:21:59;96135.22;;;28.31;25.55
49943;BME280;36011;53.362;58.948;2023-08-21T13:25:05;96129.44;;;27.79;26.12
49943;BME280;36011;53.362;58.948;2023-08-21T13:28:06;96130.09;;;27.56;26.62
49943;BME280;36011;53.362;58.948;2023-08-21T13:31:13;96123.16;;;27.42;26.99
49943;BME280;36011;53.362;58.948;2023-08-21T13:34:14;96114.69;;;27.13;27.11
49943;BME280;36011;53.362;58.948;2023-08-21T13:37:18;96119.38;;;26.99;27.47
49943;BME280;36011;53.362;58.948;2023-08-21T13:40:21;96111.19;;;26.87;27.84
49943;BME280;36011;53.362;58.948;2023-08-21T13:43:28;96112.66;;;26.58;28.08
49943;BME280;36011;53.362;58.948;2023-08-21T13:46:30;96106.63;;;26.25;28.80
49943;BME280;36011;53.362;58.948;2023-08-21T13:49:35;96111.34;;;25.97;28.80
49943;BME280;36011;53.362;58.948;2023-08-21T13:52:40;96115.53;;;25.80;29.42
49943;BME280;36011;53.362;58.948;2023-08-21T13:55:44;96115.53;;;25.80;29.67
49943;BME280;36011;53.362;58.948;2023-08-21T13:58:46;96118.22;;;25.87;29.26
49943;BME280;36011;53.362;58.948;2023-08-21T14:01:52;96118.84;;;25.82;29.54
49943;BME280;36011;53.362;58.948;2023-08-21T14:04:56;96112.84;;;25.80;29.75
49943;BME280;36011;53.362;58.948;2023-08-21T14:08:02;96113.22;;;25.97;29.33
49943;BME280;36011;53.362;58.948;2023-08-21T14:11:06;96113.78;;;26.06;29.38
49943;BME280;36011;53.362;58.948;2023-08-21T14:14:14;96111.28;;;26.11;29.33
49943;BME280;36011;53.362;58.948;2023-08-21T14:17:21;96113.72;;;26.19;29.08
49943;BME280;36011;53.362;58.948;2023-08-21T14:20:25;96101.34;;;26.05;29.62
49943;BME280;36011;53.362;58.948;2023-08-21T14:23:29;96113.41;;;26.02;29.78
49943;BME280;36011;53.362;58.948;2023-08-21T14:26:38;96115.16;;;25.70;29.79
49943;BME280;36011;53.362;58.948;2023-08-21T14:29:44;96114.63;;;25.41;30.43
49943;BME280;36011;53.362;58.948;2023-08-21T14:32:50;96118.19;;;25.15;31.40
49943;BME280;36011;53.362;58.948;2023-08-21T14:35:56;96115.91;;;24.92;31.86
49943;BME280;36011;53.362;58.948;2023-08-21T14:39:05;96114.47;;;24.83;32.06
49943;BME280;36011;53.362;58.948;2023-08-21T14:42:07;96124.38;;;24.76;32.17
49943;BME280;36011;53.362;58.948;2023-08-21T14:45:09;96127.50;;;24.73;32.23
49943;BME280;36011;53.362;58.948;2023-08-21T14:48:16;96116.94;;;24.71;32.72
49943;BME280;36011;53.362;58.948;2023-08-21T14:51:18;96125.00;;;24.71;33.09
49943;BME280;36011;53.362;58.948;2023-08-21T14:54:20;96121.06;;;24.54;34.19
49943;BME280;36011;53.362;58.948;2023-08-21T14:57:24;96116.03;;;24.31;34.85
49943;BME280;36011;53.362;58.948;2023-08-21T15:00:31;96123.63;;;24.07;35.62
49943;BME280;36011;53.362;58.948;2023-08-21T15:03:35;96123.53;;;23.81;36.30
49943;BME280;36011;53.362;58.948;2023-08-21T15:06:38;96124.47;;;23.66;36.30
49943;BME280;36011;53.362;58.948;2023-08-21T15:09:45;96123.97;;;23.49;36.48
49943;BME280;36011;53.362;58.948;2023-08-21T15:12:46;96116.69;;;23.37;36.98
49943;BME280;36011;53.362;58.948;2023-08-21T15:15:50;96127.19;;;23.31;37.41
49943;BME280;36011;53.362;58.948;2023-08-21T15:18:54;96129.41;;;23.21;37.85
49943;BME280;36011;53.362;58.948;2023-08-21T15:22:02;96132.66;;;23.10;38.01
49943;BME280;36011;53.362;58.948;2023-08-21T15:25:06;96134.19;;;22.98;38.21
49943;BME280;36011;53.362;58.948;2023-08-21T15:28:10;96138.53;;;22.99;38.62
49943;BME280;36011;53.362;58.948;2023-08-21T15:31:17;96137.50;;;23.00;38.81
49943;BME280;36011;53.362;58.948;2023-08-21T15:34:25;96141.03;;;23.00;38.56
49943;BME280;36011;53.362;58.948;2023-08-21T15:37:27;96158.19;;;23.06;38.78
49943;BME280;36011;53.362;58.948;2023-08-21T15:40:33;96154.13;;;23.10;38.78
49943;BME280;36011;53.362;58.948;2023-08-21T15:43:37;96152.19;;;23.04;38.85
49943;BME280;36011;53.362;58.948;2023-08-21T15:46:39;96165.59;;;23.04;39.08
49943;BME280;36011;53.362;58.948;2023-08-21T15:49:49;96158.19;;;23.06;39.17
49943;BME280;36011;53.362;58.948;2023-08-21T15:52:51;96161.91;;;23.05;38.98
49943;BME280;36011;53.362;58.948;2023-08-21T15:55:52;96169.56;;;23.08;39.06
49943;BME280;36011;53.362;58.948;2023-08-21T15:58:56;96156.28;;;23.00;39.18
49943;BME280;36011;53.362;58.948;2023-08-21T16:02:05;96162.13;;;22.82;39.49
49943;BME280;36011;53.362;58.948;2023-08-21T16:05:09;96135.63;;;22.51;39.96
49943;BME280;36011;53.362;58.948;2023-08-21T16:08:13;96161.28;;;22.60;40.03
49943;BME280;36011;53.362;58.948;2023-08-21T16:11:17;96160.50;;;22.66;40.03
49943;BME280;36011;53.362;58.948;2023-08-21T16:14:21;96166.13;;;22.71;40.01
49943;BME280;36011;53.362;58.948;2023-08-21T16:17:27;96169.66;;;22.72;39.96
49943;BME280;36011;53.362;58.948;2023-08-21T16:20:34;96169.59;;;22.65;40.19
49943;BME280;36011;53.362;58.948;2023-08-21T16:23:37;96168.69;;;22.58;39.70
49943;BME280;36011;53.362;58.948;2023-08-21T16:26:41;96154.78;;;22.48;39.01